RCH3512 RODN-RODN
Flight info
| Callsign | RCH3512 |
|---|---|
| Flight time | 2h 13m |
| Altitude | 22000 |
| Route | KXC DCT SJE DCT IGE DCT MJC/N340F210 DCT 2446N12734E 2437N12804E DCT 2504N12839E DCT TIT |
| Aircraft | C130/M-SDE2E3FGRY/H |
Departure
| Time | 2026-05-07 20:06 |
|---|---|
| Airport | Kadena Air Base (RODN) |
Arrival
| Time | 2026-05-07 22:20 |
|---|---|
| Airport | Kadena Air Base (RODN) |
| Time | Latitude | Longitude | Altitude | Speed | Heading |
|---|---|---|---|---|---|
| 2026-05-07 19:19 | 26.34976 | 127.75106 | 145 ft | 0 kts | 322° |
| 2026-05-07 19:45 | 26.34978 | 127.75101 | 145 ft | 0 kts | 297° |
| 2026-05-07 19:45 | 26.34978 | 127.75099 | 145 ft | 0 kts | 283° |
| 2026-05-07 19:46 | 26.34977 | 127.75094 | 145 ft | 0 kts | 257° |
| 2026-05-07 19:46 | 26.34974 | 127.75092 | 145 ft | 2 kts | 238° |
| 2026-05-07 19:46 | 26.34965 | 127.75092 | 145 ft | 2 kts | 185° |
| 2026-05-07 19:46 | 26.34956 | 127.75091 | 145 ft | 0 kts | 184° |
| 2026-05-07 19:49 | 26.34942 | 127.75090 | 146 ft | 6 kts | 186° |
| 2026-05-07 19:49 | 26.34884 | 127.75080 | 148 ft | 6 kts | 199° |
| 2026-05-07 19:49 | 26.34867 | 127.75072 | 148 ft | 0 kts | 204° |
| 2026-05-07 19:50 | 26.34865 | 127.75071 | 148 ft | 1 kts | 207° |
| 2026-05-07 19:50 | 26.34841 | 127.75056 | 149 ft | 6 kts | 208° |
| 2026-05-07 19:50 | 26.34813 | 127.75045 | 150 ft | 3 kts | 192° |
| 2026-05-07 19:50 | 26.34788 | 127.75046 | 151 ft | 5 kts | 168° |
| 2026-05-07 19:51 | 26.34760 | 127.75061 | 152 ft | 0 kts | 146° |
| 2026-05-07 20:01 | 26.34759 | 127.75062 | 152 ft | 1 kts | 146° |
| 2026-05-07 20:01 | 26.34738 | 127.75078 | 153 ft | 4 kts | 145° |
| 2026-05-07 20:01 | 26.34718 | 127.75093 | 154 ft | 4 kts | 145° |
| 2026-05-07 20:01 | 26.34689 | 127.75119 | 154 ft | 6 kts | 136° |
| 2026-05-07 20:02 | 26.34667 | 127.75170 | 154 ft | 8 kts | 96° |
| 2026-05-07 20:02 | 26.34682 | 127.75225 | 153 ft | 7 kts | 63° |
| 2026-05-07 20:02 | 26.34692 | 127.75241 | 153 ft | 0 kts | 54° |
| 2026-05-07 20:06 | 26.34827 | 127.75429 | 150 ft | 83 kts | 51° |
| 2026-05-07 20:06 | 26.35334 | 127.76139 | 471 ft | 136 kts | 52° |
| 2026-05-07 20:06 | 26.35970 | 127.77080 | 1017 ft | 164 kts | 56° |
| 2026-05-07 20:07 | 26.36679 | 127.78182 | 1711 ft | 184 kts | 54° |
| 2026-05-07 20:07 | 26.37497 | 127.79347 | 2429 ft | 195 kts | 52° |
| 2026-05-07 20:07 | 26.38383 | 127.80550 | 2825 ft | 202 kts | 50° |
| 2026-05-07 20:07 | 26.39332 | 127.81687 | 3274 ft | 200 kts | 44° |
| 2026-05-07 20:08 | 26.40376 | 127.82749 | 3459 ft | 204 kts | 40° |
| 2026-05-07 20:08 | 26.41448 | 127.83733 | 3723 ft | 196 kts | 38° |
| 2026-05-07 20:08 | 26.42528 | 127.84719 | 3927 ft | 205 kts | 39° |
| 2026-05-07 20:08 | 26.43657 | 127.85669 | 3976 ft | 202 kts | 27° |
| 2026-05-07 20:09 | 26.45002 | 127.85993 | 3984 ft | 198 kts | 350° |
| 2026-05-07 20:09 | 26.46161 | 127.85279 | 3998 ft | 192 kts | 305° |
| 2026-05-07 20:09 | 26.46545 | 127.83893 | 3996 ft | 190 kts | 269° |
| 2026-05-07 20:10 | 26.46250 | 127.80925 | 4371 ft | 199 kts | 261° |
| 2026-05-07 20:10 | 26.46064 | 127.79381 | 4692 ft | 203 kts | 262° |
| 2026-05-07 20:10 | 26.45896 | 127.77818 | 5006 ft | 203 kts | 263° |
| 2026-05-07 20:10 | 26.45793 | 127.76779 | 5216 ft | 203 kts | 263° |
| 2026-05-07 20:11 | 26.45648 | 127.75219 | 5522 ft | 202 kts | 263° |
| 2026-05-07 20:11 | 26.45465 | 127.73126 | 5944 ft | 203 kts | 264° |
| 2026-05-07 20:11 | 26.45334 | 127.71557 | 6273 ft | 203 kts | 264° |
| 2026-05-07 20:11 | 26.45249 | 127.70512 | 6483 ft | 204 kts | 264° |
| 2026-05-07 20:12 | 26.45121 | 127.68936 | 6793 ft | 204 kts | 264° |
| 2026-05-07 20:12 | 26.44995 | 127.67352 | 7118 ft | 208 kts | 264° |
| 2026-05-07 20:12 | 26.44864 | 127.65711 | 7482 ft | 215 kts | 264° |
| 2026-05-07 20:12 | 26.44732 | 127.64046 | 7866 ft | 216 kts | 264° |
| 2026-05-07 20:13 | 26.44601 | 127.62383 | 8255 ft | 215 kts | 264° |
| 2026-05-07 20:13 | 26.44470 | 127.60715 | 8642 ft | 216 kts | 264° |
| 2026-05-07 20:13 | 26.44338 | 127.59041 | 9044 ft | 216 kts | 264° |
| 2026-05-07 20:13 | 26.44206 | 127.57376 | 9450 ft | 216 kts | 264° |
| 2026-05-07 20:14 | 26.44074 | 127.55706 | 9865 ft | 216 kts | 265° |
| 2026-05-07 20:14 | 26.43942 | 127.54034 | 10238 ft | 218 kts | 265° |
| 2026-05-07 20:14 | 26.43804 | 127.52301 | 10659 ft | 232 kts | 265° |
| 2026-05-07 20:14 | 26.43663 | 127.50524 | 11114 ft | 241 kts | 265° |
| 2026-05-07 20:15 | 26.43512 | 127.48634 | 11612 ft | 248 kts | 264° |
| 2026-05-07 20:15 | 26.43357 | 127.46685 | 12168 ft | 250 kts | 265° |
| 2026-05-07 20:15 | 26.43204 | 127.44772 | 12700 ft | 250 kts | 265° |
| 2026-05-07 20:15 | 26.43049 | 127.42836 | 13251 ft | 252 kts | 265° |
| 2026-05-07 20:16 | 26.42893 | 127.40886 | 13809 ft | 253 kts | 265° |
| 2026-05-07 20:16 | 26.42736 | 127.38931 | 14308 ft | 253 kts | 265° |
| 2026-05-07 20:16 | 26.42578 | 127.36968 | 14808 ft | 253 kts | 264° |
| 2026-05-07 20:16 | 26.42421 | 127.35018 | 15313 ft | 253 kts | 264° |
| 2026-05-07 20:17 | 26.42262 | 127.33060 | 15818 ft | 252 kts | 264° |
| 2026-05-07 20:17 | 26.42105 | 127.31116 | 16329 ft | 251 kts | 264° |
| 2026-05-07 20:17 | 26.41948 | 127.29182 | 16844 ft | 250 kts | 264° |
| 2026-05-07 20:17 | 26.41795 | 127.27301 | 17345 ft | 250 kts | 264° |
| 2026-05-07 20:18 | 26.41639 | 127.25383 | 17858 ft | 249 kts | 264° |
| 2026-05-07 20:18 | 26.41483 | 127.23466 | 18358 ft | 247 kts | 264° |
| 2026-05-07 20:18 | 26.41328 | 127.21572 | 18791 ft | 246 kts | 264° |
| 2026-05-07 20:18 | 26.41173 | 127.19678 | 19221 ft | 246 kts | 264° |
| 2026-05-07 20:19 | 26.41018 | 127.17785 | 19650 ft | 245 kts | 264° |
| 2026-05-07 20:19 | 26.40863 | 127.15894 | 20073 ft | 244 kts | 264° |
| 2026-05-07 20:19 | 26.40708 | 127.14009 | 20499 ft | 244 kts | 264° |
| 2026-05-07 20:19 | 26.40553 | 127.12128 | 20914 ft | 243 kts | 264° |
| 2026-05-07 20:20 | 26.40397 | 127.10248 | 21331 ft | 243 kts | 264° |
| 2026-05-07 20:20 | 26.40243 | 127.08380 | 21737 ft | 242 kts | 264° |
| 2026-05-07 20:20 | 26.40086 | 127.06487 | 21964 ft | 250 kts | 265° |
| 2026-05-07 20:20 | 26.39922 | 127.04510 | 22007 ft | 262 kts | 265° |
| 2026-05-07 20:21 | 26.39749 | 127.02435 | 22001 ft | 273 kts | 265° |
| 2026-05-07 20:21 | 26.39572 | 127.00302 | 21994 ft | 282 kts | 265° |
| 2026-05-07 20:21 | 26.39387 | 126.98093 | 21996 ft | 289 kts | 265° |
| 2026-05-07 20:21 | 26.39199 | 126.95841 | 21992 ft | 294 kts | 264° |
| 2026-05-07 20:22 | 26.39008 | 126.93558 | 21991 ft | 298 kts | 264° |
| 2026-05-07 20:22 | 26.38816 | 126.91271 | 21992 ft | 301 kts | 264° |
| 2026-05-07 20:22 | 26.38616 | 126.88904 | 21989 ft | 304 kts | 264° |
| 2026-05-07 20:22 | 26.38420 | 126.86578 | 21986 ft | 306 kts | 264° |
| 2026-05-07 20:23 | 26.38220 | 126.84206 | 21983 ft | 307 kts | 264° |
| 2026-05-07 20:23 | 26.38019 | 126.81836 | 21996 ft | 308 kts | 264° |
| 2026-05-07 20:23 | 26.37816 | 126.79442 | 21992 ft | 310 kts | 264° |
| 2026-05-07 20:23 | 26.37610 | 126.77023 | 21991 ft | 311 kts | 264° |
| 2026-05-07 20:24 | 26.37333 | 126.74631 | 21987 ft | 312 kts | 256° |
| 2026-05-07 20:24 | 26.36485 | 126.72394 | 21989 ft | 315 kts | 240° |
| 2026-05-07 20:24 | 26.35147 | 126.70499 | 21990 ft | 318 kts | 230° |
| 2026-05-07 20:24 | 26.33612 | 126.68712 | 21987 ft | 319 kts | 228° |
| 2026-05-07 20:25 | 26.32028 | 126.66959 | 21990 ft | 320 kts | 227° |
| 2026-05-07 20:25 | 26.30425 | 126.65241 | 21989 ft | 320 kts | 227° |
| 2026-05-07 20:25 | 26.28806 | 126.63534 | 21990 ft | 320 kts | 226° |
| 2026-05-07 20:25 | 26.27181 | 126.61834 | 21990 ft | 321 kts | 226° |
| 2026-05-07 20:26 | 26.25553 | 126.60142 | 21988 ft | 321 kts | 226° |
| 2026-05-07 20:26 | 26.23919 | 126.58447 | 21987 ft | 321 kts | 226° |
| 2026-05-07 20:26 | 26.22282 | 126.56753 | 21976 ft | 321 kts | 226° |
| 2026-05-07 20:26 | 26.20652 | 126.55066 | 21982 ft | 321 kts | 226° |
| 2026-05-07 20:27 | 26.19015 | 126.53374 | 21988 ft | 321 kts | 226° |
| 2026-05-07 20:27 | 26.17379 | 126.51685 | 21987 ft | 321 kts | 226° |
| 2026-05-07 20:27 | 26.15739 | 126.49992 | 21988 ft | 321 kts | 226° |
| 2026-05-07 20:27 | 26.14105 | 126.48305 | 21987 ft | 321 kts | 226° |
| 2026-05-07 20:28 | 26.12464 | 126.46613 | 21987 ft | 321 kts | 226° |
| 2026-05-07 20:28 | 26.10828 | 126.44926 | 21987 ft | 321 kts | 226° |
| 2026-05-07 20:28 | 26.09184 | 126.43233 | 21987 ft | 321 kts | 226° |
| 2026-05-07 20:28 | 26.07543 | 126.41542 | 21987 ft | 322 kts | 226° |
| 2026-05-07 20:29 | 26.05934 | 126.39884 | 21985 ft | 322 kts | 226° |
| 2026-05-07 20:29 | 26.04288 | 126.38191 | 21984 ft | 322 kts | 226° |
| 2026-05-07 20:29 | 26.02646 | 126.36501 | 21984 ft | 322 kts | 226° |
| 2026-05-07 20:29 | 26.01007 | 126.34816 | 21984 ft | 322 kts | 226° |
| 2026-05-07 20:30 | 25.99366 | 126.33128 | 21984 ft | 322 kts | 226° |
| 2026-05-07 20:30 | 25.97720 | 126.31437 | 21986 ft | 322 kts | 226° |
| 2026-05-07 20:30 | 25.96079 | 126.29751 | 21986 ft | 322 kts | 226° |
| 2026-05-07 20:30 | 25.94439 | 126.28067 | 21987 ft | 322 kts | 226° |
| 2026-05-07 20:31 | 25.92790 | 126.26375 | 21991 ft | 322 kts | 226° |
| 2026-05-07 20:31 | 25.91149 | 126.24691 | 21995 ft | 322 kts | 226° |
| 2026-05-07 20:31 | 25.89503 | 126.23003 | 21986 ft | 322 kts | 226° |
| 2026-05-07 20:31 | 25.87906 | 126.21365 | 21987 ft | 322 kts | 226° |
| 2026-05-07 20:32 | 25.86214 | 126.19631 | 21989 ft | 322 kts | 226° |
| 2026-05-07 20:32 | 25.84567 | 126.17944 | 21986 ft | 322 kts | 226° |
| 2026-05-07 20:32 | 25.82938 | 126.16277 | 21984 ft | 322 kts | 226° |
| 2026-05-07 20:32 | 25.81292 | 126.14592 | 21988 ft | 322 kts | 226° |
| 2026-05-07 20:33 | 25.79648 | 126.12910 | 21985 ft | 322 kts | 226° |
| 2026-05-07 20:33 | 25.77979 | 126.11202 | 21985 ft | 322 kts | 226° |
| 2026-05-07 20:33 | 25.76361 | 126.09549 | 21983 ft | 322 kts | 226° |
| 2026-05-07 20:33 | 25.74708 | 126.07859 | 21984 ft | 322 kts | 226° |
| 2026-05-07 20:34 | 25.73075 | 126.06191 | 21985 ft | 322 kts | 226° |
| 2026-05-07 20:34 | 25.71431 | 126.04512 | 21985 ft | 322 kts | 226° |
| 2026-05-07 20:34 | 25.69758 | 126.02805 | 21984 ft | 322 kts | 226° |
| 2026-05-07 20:34 | 25.68134 | 126.01147 | 21983 ft | 322 kts | 226° |
| 2026-05-07 20:35 | 25.66468 | 125.99448 | 21985 ft | 322 kts | 226° |
| 2026-05-07 20:35 | 25.64822 | 125.97770 | 21981 ft | 322 kts | 225° |
| 2026-05-07 20:35 | 25.63193 | 125.96110 | 21980 ft | 321 kts | 226° |
| 2026-05-07 20:35 | 25.61549 | 125.94435 | 21984 ft | 321 kts | 226° |
| 2026-05-07 20:36 | 25.59906 | 125.92762 | 21988 ft | 321 kts | 226° |
| 2026-05-07 20:36 | 25.58262 | 125.91089 | 21987 ft | 321 kts | 226° |
| 2026-05-07 20:36 | 25.56613 | 125.89410 | 21989 ft | 321 kts | 226° |
| 2026-05-07 20:36 | 25.54971 | 125.87740 | 21988 ft | 321 kts | 226° |
| 2026-05-07 20:37 | 25.53327 | 125.86069 | 21984 ft | 321 kts | 226° |
| 2026-05-07 20:37 | 25.51681 | 125.84396 | 21984 ft | 321 kts | 226° |
| 2026-05-07 20:37 | 25.50035 | 125.82723 | 21982 ft | 321 kts | 226° |
| 2026-05-07 20:37 | 25.48390 | 125.81053 | 21983 ft | 321 kts | 226° |
| 2026-05-07 20:38 | 25.46740 | 125.79378 | 21983 ft | 321 kts | 226° |
| 2026-05-07 20:38 | 25.45090 | 125.77703 | 21976 ft | 321 kts | 226° |
| 2026-05-07 20:38 | 25.43451 | 125.76041 | 21981 ft | 321 kts | 226° |
| 2026-05-07 20:38 | 25.41808 | 125.74375 | 21987 ft | 321 kts | 226° |
| 2026-05-07 20:39 | 25.40175 | 125.72720 | 21981 ft | 321 kts | 226° |
| 2026-05-07 20:39 | 25.38531 | 125.71054 | 21982 ft | 321 kts | 226° |
| 2026-05-07 20:39 | 25.36884 | 125.69386 | 21981 ft | 321 kts | 226° |
| 2026-05-07 20:39 | 25.35240 | 125.67722 | 21983 ft | 321 kts | 226° |
| 2026-05-07 20:40 | 25.33595 | 125.66057 | 21980 ft | 321 kts | 226° |
| 2026-05-07 20:40 | 25.31952 | 125.64395 | 21980 ft | 321 kts | 226° |
| 2026-05-07 20:40 | 25.30304 | 125.62728 | 21981 ft | 321 kts | 226° |
| 2026-05-07 20:40 | 25.28653 | 125.61060 | 21978 ft | 320 kts | 226° |
| 2026-05-07 20:41 | 25.27016 | 125.59406 | 21980 ft | 321 kts | 226° |
| 2026-05-07 20:41 | 25.25372 | 125.57745 | 21969 ft | 321 kts | 226° |
| 2026-05-07 20:41 | 25.23724 | 125.56081 | 21977 ft | 320 kts | 226° |
| 2026-05-07 20:41 | 25.22081 | 125.54423 | 21982 ft | 320 kts | 226° |
| 2026-05-07 20:42 | 25.20437 | 125.52765 | 21977 ft | 320 kts | 226° |
| 2026-05-07 20:42 | 25.18782 | 125.51096 | 21978 ft | 320 kts | 226° |
| 2026-05-07 20:42 | 25.17137 | 125.49437 | 21984 ft | 320 kts | 226° |
| 2026-05-07 20:42 | 25.15488 | 125.47776 | 21979 ft | 321 kts | 226° |
| 2026-05-07 20:43 | 25.13845 | 125.46121 | 21981 ft | 321 kts | 226° |
| 2026-05-07 20:43 | 25.12217 | 125.44481 | 21979 ft | 321 kts | 226° |
| 2026-05-07 20:43 | 25.10568 | 125.42822 | 21979 ft | 321 kts | 226° |
| 2026-05-07 20:43 | 25.08923 | 125.41167 | 21978 ft | 321 kts | 225° |
| 2026-05-07 20:44 | 25.07278 | 125.39512 | 21978 ft | 321 kts | 225° |
| 2026-05-07 20:44 | 25.05628 | 125.37852 | 21978 ft | 321 kts | 225° |
| 2026-05-07 20:44 | 25.03987 | 125.36203 | 21975 ft | 320 kts | 225° |
| 2026-05-07 20:44 | 25.02340 | 125.34548 | 21979 ft | 320 kts | 225° |
| 2026-05-07 20:45 | 25.00687 | 125.32888 | 21979 ft | 320 kts | 225° |
| 2026-05-07 20:45 | 24.99046 | 125.31241 | 21978 ft | 320 kts | 225° |
| 2026-05-07 20:45 | 24.97399 | 125.29588 | 21977 ft | 320 kts | 225° |
| 2026-05-07 20:45 | 24.95748 | 125.27932 | 21977 ft | 320 kts | 225° |
| 2026-05-07 20:46 | 24.94102 | 125.26282 | 21956 ft | 320 kts | 225° |
| 2026-05-07 20:46 | 24.92453 | 125.24628 | 21958 ft | 320 kts | 225° |
| 2026-05-07 20:46 | 24.90804 | 125.22977 | 21952 ft | 321 kts | 225° |
| 2026-05-07 20:46 | 24.89152 | 125.21322 | 21948 ft | 321 kts | 225° |
| 2026-05-07 20:47 | 24.87504 | 125.19672 | 21949 ft | 321 kts | 225° |
| 2026-05-07 20:47 | 24.85848 | 125.18014 | 21949 ft | 321 kts | 225° |
| 2026-05-07 20:47 | 24.84201 | 125.16365 | 21941 ft | 320 kts | 226° |
| 2026-05-07 20:47 | 24.82717 | 125.14551 | 21949 ft | 318 kts | 235° |
| 2026-05-07 20:48 | 24.81490 | 125.12542 | 21948 ft | 316 kts | 241° |
| 2026-05-07 20:48 | 24.80426 | 125.10462 | 21948 ft | 316 kts | 243° |
| 2026-05-07 20:48 | 24.79384 | 125.08337 | 21949 ft | 316 kts | 243° |
| 2026-05-07 20:48 | 24.78360 | 125.06199 | 21949 ft | 316 kts | 244° |
| 2026-05-07 20:49 | 24.77372 | 125.04108 | 21950 ft | 316 kts | 244° |
| 2026-05-07 20:49 | 24.76368 | 125.01970 | 21951 ft | 314 kts | 244° |
| 2026-05-07 20:49 | 24.75374 | 124.99846 | 21952 ft | 310 kts | 244° |
| 2026-05-07 20:49 | 24.74392 | 124.97744 | 21957 ft | 307 kts | 244° |
| 2026-05-07 20:50 | 24.73419 | 124.95659 | 21960 ft | 307 kts | 244° |
| 2026-05-07 20:50 | 24.72443 | 124.93568 | 21962 ft | 308 kts | 244° |
| 2026-05-07 20:50 | 24.71463 | 124.91469 | 21964 ft | 309 kts | 244° |
| 2026-05-07 20:50 | 24.70481 | 124.89367 | 21966 ft | 309 kts | 244° |
| 2026-05-07 20:51 | 24.69500 | 124.87267 | 21966 ft | 309 kts | 244° |
| 2026-05-07 20:51 | 24.68518 | 124.85166 | 21968 ft | 308 kts | 244° |
| 2026-05-07 20:51 | 24.67536 | 124.83068 | 21967 ft | 308 kts | 244° |
| 2026-05-07 20:51 | 24.66557 | 124.80974 | 21972 ft | 308 kts | 244° |
| 2026-05-07 20:52 | 24.65576 | 124.78879 | 21974 ft | 308 kts | 244° |
| 2026-05-07 20:52 | 24.64595 | 124.76786 | 21977 ft | 308 kts | 244° |
| 2026-05-07 20:52 | 24.63615 | 124.74694 | 21976 ft | 308 kts | 244° |
| 2026-05-07 20:52 | 24.62636 | 124.72606 | 21981 ft | 308 kts | 244° |
| 2026-05-07 20:53 | 24.61650 | 124.70506 | 21976 ft | 309 kts | 244° |
| 2026-05-07 20:53 | 24.60667 | 124.68411 | 21973 ft | 309 kts | 244° |
| 2026-05-07 20:53 | 24.59678 | 124.66305 | 21974 ft | 309 kts | 244° |
| 2026-05-07 20:53 | 24.58695 | 124.64213 | 21973 ft | 309 kts | 244° |
| 2026-05-07 20:54 | 24.57707 | 124.62113 | 21973 ft | 309 kts | 244° |
| 2026-05-07 20:54 | 24.56723 | 124.60020 | 21973 ft | 309 kts | 244° |
| 2026-05-07 20:54 | 24.55745 | 124.57943 | 21972 ft | 309 kts | 244° |
| 2026-05-07 20:54 | 24.54759 | 124.55847 | 21970 ft | 309 kts | 244° |
| 2026-05-07 20:55 | 24.53774 | 124.53758 | 21966 ft | 309 kts | 244° |
| 2026-05-07 20:55 | 24.52787 | 124.51663 | 21964 ft | 309 kts | 244° |
| 2026-05-07 20:55 | 24.51799 | 124.49569 | 21962 ft | 309 kts | 244° |
| 2026-05-07 20:55 | 24.50813 | 124.47478 | 21958 ft | 308 kts | 244° |
| 2026-05-07 20:56 | 24.49826 | 124.45387 | 21961 ft | 309 kts | 244° |
| 2026-05-07 20:56 | 24.48841 | 124.43302 | 21959 ft | 309 kts | 244° |
| 2026-05-07 20:56 | 24.47852 | 124.41210 | 21955 ft | 309 kts | 244° |
| 2026-05-07 20:56 | 24.46864 | 124.39119 | 21954 ft | 309 kts | 244° |
| 2026-05-07 20:57 | 24.45874 | 124.37026 | 21952 ft | 309 kts | 244° |
| 2026-05-07 20:57 | 24.44882 | 124.34928 | 21950 ft | 309 kts | 244° |
| 2026-05-07 20:57 | 24.43891 | 124.32836 | 21948 ft | 309 kts | 243° |
| 2026-05-07 20:57 | 24.42596 | 124.30963 | 21947 ft | 313 kts | 224° |
| 2026-05-07 20:58 | 24.40708 | 124.29810 | 21948 ft | 322 kts | 200° |
| 2026-05-07 20:58 | 24.38448 | 124.29667 | 21950 ft | 334 kts | 174° |
| 2026-05-07 20:58 | 24.36948 | 124.30225 | 21950 ft | 343 kts | 156° |
| 2026-05-07 20:58 | 24.34664 | 124.32665 | 21948 ft | 358 kts | 122° |
| 2026-05-07 20:59 | 24.33935 | 124.35279 | 21950 ft | 363 kts | 95° |
| 2026-05-07 20:59 | 24.34248 | 124.38005 | 21953 ft | 364 kts | 69° |
| 2026-05-07 20:59 | 24.35551 | 124.40345 | 21956 ft | 359 kts | 44° |
| 2026-05-07 20:59 | 24.37250 | 124.42371 | 21955 ft | 361 kts | 49° |
| 2026-05-07 21:00 | 24.38232 | 124.43846 | 21952 ft | 362 kts | 54° |
| 2026-05-07 21:00 | 24.39565 | 124.46230 | 21959 ft | 363 kts | 59° |
| 2026-05-07 21:00 | 24.40754 | 124.48598 | 21959 ft | 363 kts | 60° |
| 2026-05-07 21:00 | 24.41929 | 124.51052 | 21964 ft | 364 kts | 61° |
| 2026-05-07 21:01 | 24.43089 | 124.53531 | 21968 ft | 364 kts | 62° |
| 2026-05-07 21:01 | 24.44221 | 124.55972 | 21967 ft | 364 kts | 62° |
| 2026-05-07 21:01 | 24.45361 | 124.58441 | 21969 ft | 364 kts | 62° |
| 2026-05-07 21:01 | 24.46506 | 124.60925 | 21971 ft | 363 kts | 62° |
| 2026-05-07 21:02 | 24.47642 | 124.63394 | 21973 ft | 363 kts | 62° |
| 2026-05-07 21:02 | 24.48782 | 124.65871 | 21978 ft | 364 kts | 62° |
| 2026-05-07 21:02 | 24.49922 | 124.68351 | 21972 ft | 363 kts | 62° |
| 2026-05-07 21:02 | 24.51062 | 124.70833 | 21972 ft | 363 kts | 62° |
| 2026-05-07 21:03 | 24.52196 | 124.73303 | 21976 ft | 363 kts | 62° |
| 2026-05-07 21:03 | 24.53329 | 124.75772 | 21974 ft | 364 kts | 62° |
| 2026-05-07 21:03 | 24.54471 | 124.78260 | 21977 ft | 364 kts | 62° |
| 2026-05-07 21:03 | 24.55596 | 124.80715 | 21976 ft | 365 kts | 62° |
| 2026-05-07 21:04 | 24.56737 | 124.83206 | 21976 ft | 364 kts | 62° |
| 2026-05-07 21:04 | 24.57874 | 124.85689 | 21977 ft | 364 kts | 62° |
| 2026-05-07 21:04 | 24.59014 | 124.88179 | 21976 ft | 364 kts | 62° |
| 2026-05-07 21:04 | 24.60141 | 124.90641 | 21976 ft | 364 kts | 62° |
| 2026-05-07 21:05 | 24.61279 | 124.93131 | 21964 ft | 364 kts | 62° |
| 2026-05-07 21:05 | 24.62416 | 124.95618 | 21967 ft | 364 kts | 62° |
| 2026-05-07 21:05 | 24.63551 | 124.98103 | 21964 ft | 364 kts | 62° |
| 2026-05-07 21:05 | 24.64683 | 125.00584 | 21971 ft | 364 kts | 62° |
| 2026-05-07 21:06 | 24.65820 | 125.03074 | 21962 ft | 364 kts | 62° |
| 2026-05-07 21:06 | 24.66936 | 125.05522 | 22122 ft | 360 kts | 62° |
| 2026-05-07 21:06 | 24.68066 | 125.08000 | 22125 ft | 363 kts | 62° |
| 2026-05-07 21:06 | 24.69216 | 125.10525 | 21758 ft | 370 kts | 62° |
| 2026-05-07 21:07 | 24.70361 | 125.13041 | 21506 ft | 364 kts | 62° |
| 2026-05-07 21:07 | 24.71482 | 125.15504 | 21254 ft | 359 kts | 62° |
| 2026-05-07 21:07 | 24.72584 | 125.17928 | 21020 ft | 356 kts | 62° |
| 2026-05-07 21:07 | 24.73693 | 125.20367 | 20984 ft | 352 kts | 62° |
| 2026-05-07 21:08 | 24.74791 | 125.22784 | 20971 ft | 353 kts | 62° |
| 2026-05-07 21:08 | 24.75894 | 125.25211 | 20975 ft | 356 kts | 62° |
| 2026-05-07 21:08 | 24.76854 | 125.27697 | 20976 ft | 359 kts | 72° |
| 2026-05-07 21:08 | 24.77427 | 125.30371 | 20976 ft | 360 kts | 81° |
| 2026-05-07 21:09 | 24.77646 | 125.33144 | 20977 ft | 359 kts | 88° |
| 2026-05-07 21:09 | 24.77720 | 125.35888 | 20977 ft | 358 kts | 90° |
| 2026-05-07 21:09 | 24.77756 | 125.38624 | 20975 ft | 358 kts | 90° |
| 2026-05-07 21:09 | 24.77774 | 125.41333 | 20976 ft | 358 kts | 90° |
| 2026-05-07 21:10 | 24.77785 | 125.44077 | 20973 ft | 358 kts | 91° |
| 2026-05-07 21:10 | 24.77793 | 125.46818 | 20984 ft | 358 kts | 91° |
| 2026-05-07 21:10 | 24.77799 | 125.49552 | 20978 ft | 359 kts | 91° |
| 2026-05-07 21:10 | 24.77804 | 125.52303 | 20974 ft | 358 kts | 91° |
| 2026-05-07 21:11 | 24.77811 | 125.55004 | 20983 ft | 358 kts | 90° |
| 2026-05-07 21:11 | 24.77818 | 125.57751 | 20981 ft | 359 kts | 91° |
| 2026-05-07 21:11 | 24.77826 | 125.63246 | 20983 ft | 359 kts | 91° |
| 2026-05-07 21:12 | 24.77827 | 125.65985 | 20985 ft | 358 kts | 91° |
| 2026-05-07 21:12 | 24.77829 | 125.68736 | 20985 ft | 358 kts | 91° |
| 2026-05-07 21:12 | 24.77829 | 125.71480 | 20984 ft | 358 kts | 91° |
| 2026-05-07 21:12 | 24.77829 | 125.74214 | 20984 ft | 358 kts | 91° |
| 2026-05-07 21:13 | 24.77829 | 125.76965 | 20981 ft | 358 kts | 91° |
| 2026-05-07 21:13 | 24.77828 | 125.79698 | 20984 ft | 358 kts | 91° |
| 2026-05-07 21:13 | 24.77826 | 125.82445 | 20985 ft | 358 kts | 91° |
| 2026-05-07 21:13 | 24.77824 | 125.85185 | 20983 ft | 358 kts | 91° |
| 2026-05-07 21:14 | 24.77822 | 125.87925 | 20984 ft | 358 kts | 91° |
| 2026-05-07 21:14 | 24.77819 | 125.90670 | 20985 ft | 359 kts | 91° |
| 2026-05-07 21:14 | 24.77815 | 125.93410 | 20983 ft | 359 kts | 91° |
| 2026-05-07 21:14 | 24.77811 | 125.96152 | 20986 ft | 359 kts | 91° |
| 2026-05-07 21:15 | 24.77806 | 125.98903 | 20990 ft | 359 kts | 91° |
| 2026-05-07 21:15 | 24.77801 | 126.01645 | 20990 ft | 359 kts | 91° |
| 2026-05-07 21:15 | 24.77796 | 126.04388 | 20988 ft | 358 kts | 91° |
| 2026-05-07 21:15 | 24.77790 | 126.07133 | 20991 ft | 358 kts | 91° |
| 2026-05-07 21:16 | 24.77783 | 126.09868 | 20989 ft | 358 kts | 91° |
| 2026-05-07 21:16 | 24.77776 | 126.12615 | 20990 ft | 358 kts | 91° |
| 2026-05-07 21:16 | 24.77768 | 126.15355 | 20989 ft | 358 kts | 91° |
| 2026-05-07 21:16 | 24.77760 | 126.18099 | 20992 ft | 358 kts | 91° |
| 2026-05-07 21:17 | 24.77752 | 126.20847 | 20986 ft | 358 kts | 91° |
| 2026-05-07 21:17 | 24.77742 | 126.23557 | 20986 ft | 358 kts | 91° |
| 2026-05-07 21:17 | 24.77733 | 126.26307 | 20981 ft | 358 kts | 91° |
| 2026-05-07 21:17 | 24.77723 | 126.29038 | 20986 ft | 357 kts | 91° |
| 2026-05-07 21:18 | 24.77712 | 126.31778 | 20987 ft | 357 kts | 91° |
| 2026-05-07 21:18 | 24.77701 | 126.34477 | 20988 ft | 358 kts | 91° |
| 2026-05-07 21:18 | 24.77689 | 126.37218 | 20986 ft | 358 kts | 91° |
| 2026-05-07 21:18 | 24.77677 | 126.39956 | 20990 ft | 358 kts | 91° |
| 2026-05-07 21:19 | 24.77664 | 126.42696 | 20991 ft | 358 kts | 91° |
| 2026-05-07 21:19 | 24.77651 | 126.45412 | 20990 ft | 358 kts | 91° |
| 2026-05-07 21:19 | 24.77637 | 126.48151 | 20989 ft | 358 kts | 91° |
| 2026-05-07 21:19 | 24.77623 | 126.50887 | 20986 ft | 358 kts | 91° |
| 2026-05-07 21:20 | 24.77608 | 126.53622 | 20988 ft | 358 kts | 91° |
| 2026-05-07 21:20 | 24.77593 | 126.56360 | 20991 ft | 358 kts | 91° |
| 2026-05-07 21:20 | 24.77578 | 126.59087 | 20990 ft | 358 kts | 91° |
| 2026-05-07 21:20 | 24.77561 | 126.61832 | 20990 ft | 358 kts | 91° |
| 2026-05-07 21:21 | 24.77545 | 126.64571 | 20990 ft | 358 kts | 91° |
| 2026-05-07 21:21 | 24.77527 | 126.67306 | 20990 ft | 358 kts | 91° |
| 2026-05-07 21:21 | 24.77510 | 126.70036 | 20987 ft | 358 kts | 91° |
| 2026-05-07 21:21 | 24.77491 | 126.72765 | 20989 ft | 358 kts | 91° |
| 2026-05-07 21:22 | 24.77473 | 126.75504 | 20983 ft | 360 kts | 91° |
| 2026-05-07 21:22 | 24.77453 | 126.78268 | 20988 ft | 363 kts | 91° |
| 2026-05-07 21:22 | 24.77433 | 126.81029 | 20988 ft | 365 kts | 91° |
| 2026-05-07 21:22 | 24.77413 | 126.83820 | 20987 ft | 366 kts | 91° |
| 2026-05-07 21:23 | 24.77391 | 126.86621 | 20989 ft | 366 kts | 91° |
| 2026-05-07 21:23 | 24.77370 | 126.89419 | 20989 ft | 365 kts | 91° |
| 2026-05-07 21:23 | 24.77348 | 126.92205 | 20989 ft | 365 kts | 91° |
| 2026-05-07 21:23 | 24.77325 | 126.95001 | 20990 ft | 365 kts | 91° |
| 2026-05-07 21:24 | 24.77302 | 126.97792 | 20990 ft | 365 kts | 91° |
| 2026-05-07 21:24 | 24.77278 | 127.00575 | 20986 ft | 365 kts | 91° |
| 2026-05-07 21:24 | 24.77254 | 127.03369 | 20989 ft | 364 kts | 91° |
| 2026-05-07 21:24 | 24.77229 | 127.06150 | 20989 ft | 364 kts | 91° |
| 2026-05-07 21:25 | 24.77203 | 127.08937 | 20986 ft | 364 kts | 91° |
| 2026-05-07 21:25 | 24.77178 | 127.11719 | 20990 ft | 364 kts | 91° |
| 2026-05-07 21:25 | 24.77151 | 127.14513 | 20990 ft | 364 kts | 91° |
| 2026-05-07 21:25 | 24.77124 | 127.17290 | 20989 ft | 364 kts | 91° |
| 2026-05-07 21:26 | 24.77097 | 127.20079 | 20991 ft | 364 kts | 91° |
| 2026-05-07 21:26 | 24.77069 | 127.22872 | 20989 ft | 364 kts | 91° |
| 2026-05-07 21:26 | 24.77041 | 127.25653 | 20991 ft | 364 kts | 91° |
| 2026-05-07 21:26 | 24.77012 | 127.28434 | 20992 ft | 363 kts | 91° |
| 2026-05-07 21:27 | 24.76982 | 127.31213 | 20997 ft | 364 kts | 91° |
| 2026-05-07 21:27 | 24.76952 | 127.33985 | 20992 ft | 364 kts | 91° |
| 2026-05-07 21:27 | 24.76922 | 127.36769 | 20991 ft | 364 kts | 91° |
| 2026-05-07 21:27 | 24.76891 | 127.39522 | 20992 ft | 364 kts | 91° |
| 2026-05-07 21:28 | 24.76860 | 127.42308 | 20991 ft | 364 kts | 91° |
| 2026-05-07 21:28 | 24.76827 | 127.45131 | 20993 ft | 364 kts | 91° |
| 2026-05-07 21:28 | 24.76795 | 127.47914 | 20989 ft | 364 kts | 91° |
| 2026-05-07 21:28 | 24.76761 | 127.50699 | 20992 ft | 364 kts | 91° |
| 2026-05-07 21:29 | 24.76714 | 127.53446 | 20991 ft | 363 kts | 94° |
| 2026-05-07 21:29 | 24.76410 | 127.56163 | 20997 ft | 362 kts | 101° |
| 2026-05-07 21:29 | 24.75859 | 127.58853 | 20995 ft | 362 kts | 107° |
| 2026-05-07 21:29 | 24.75141 | 127.61509 | 20995 ft | 362 kts | 109° |
| 2026-05-07 21:30 | 24.74384 | 127.64146 | 20994 ft | 361 kts | 109° |
| 2026-05-07 21:30 | 24.73613 | 127.66778 | 20998 ft | 361 kts | 110° |
| 2026-05-07 21:30 | 24.72833 | 127.69412 | 20999 ft | 361 kts | 110° |
| 2026-05-07 21:30 | 24.72073 | 127.71965 | 20992 ft | 361 kts | 110° |
| 2026-05-07 21:31 | 24.71280 | 127.74624 | 20998 ft | 360 kts | 110° |
| 2026-05-07 21:31 | 24.70499 | 127.77240 | 20999 ft | 360 kts | 110° |
| 2026-05-07 21:31 | 24.69719 | 127.79848 | 20995 ft | 360 kts | 110° |
| 2026-05-07 21:31 | 24.68936 | 127.82463 | 20998 ft | 360 kts | 110° |
| 2026-05-07 21:32 | 24.68156 | 127.85065 | 20998 ft | 360 kts | 110° |
| 2026-05-07 21:32 | 24.67369 | 127.87694 | 20999 ft | 360 kts | 110° |
| 2026-05-07 21:32 | 24.66582 | 127.90315 | 20998 ft | 360 kts | 110° |
| 2026-05-07 21:32 | 24.65798 | 127.92928 | 20996 ft | 360 kts | 110° |
| 2026-05-07 21:33 | 24.65015 | 127.95531 | 20994 ft | 360 kts | 110° |
| 2026-05-07 21:33 | 24.64228 | 127.98150 | 20992 ft | 359 kts | 110° |
| 2026-05-07 21:33 | 24.63444 | 128.00754 | 20997 ft | 359 kts | 110° |
| 2026-05-07 21:33 | 24.62746 | 128.03383 | 20991 ft | 360 kts | 101° |
| 2026-05-07 21:34 | 24.62758 | 128.06126 | 20990 ft | 361 kts | 78° |
| 2026-05-07 21:34 | 24.63661 | 128.08672 | 20994 ft | 358 kts | 57° |
| 2026-05-07 21:34 | 24.65097 | 128.10910 | 20996 ft | 358 kts | 50° |
| 2026-05-07 21:34 | 24.66635 | 128.13048 | 20998 ft | 358 kts | 49° |
| 2026-05-07 21:35 | 24.68219 | 128.15158 | 20998 ft | 357 kts | 48° |
| 2026-05-07 21:35 | 24.69796 | 128.17221 | 20996 ft | 357 kts | 47° |
| 2026-05-07 21:35 | 24.71379 | 128.19276 | 20993 ft | 356 kts | 47° |
| 2026-05-07 21:35 | 24.73001 | 128.21374 | 20997 ft | 356 kts | 47° |
| 2026-05-07 21:36 | 24.74612 | 128.23454 | 21008 ft | 356 kts | 47° |
| 2026-05-07 21:36 | 24.76197 | 128.25500 | 21006 ft | 357 kts | 47° |
| 2026-05-07 21:36 | 24.77805 | 128.27576 | 21001 ft | 358 kts | 47° |
| 2026-05-07 21:36 | 24.79421 | 128.29665 | 21000 ft | 357 kts | 47° |
| 2026-05-07 21:37 | 24.81032 | 128.31746 | 21001 ft | 357 kts | 47° |
| 2026-05-07 21:37 | 24.82645 | 128.33833 | 21004 ft | 357 kts | 47° |
| 2026-05-07 21:37 | 24.84254 | 128.35914 | 21004 ft | 357 kts | 47° |
| 2026-05-07 21:37 | 24.85860 | 128.37994 | 21004 ft | 357 kts | 47° |
| 2026-05-07 21:38 | 24.87467 | 128.40075 | 21004 ft | 357 kts | 47° |
| 2026-05-07 21:38 | 24.89078 | 128.42161 | 21004 ft | 357 kts | 47° |
| 2026-05-07 21:38 | 24.90685 | 128.44245 | 21004 ft | 357 kts | 47° |
| 2026-05-07 21:38 | 24.92299 | 128.46339 | 21008 ft | 357 kts | 47° |
| 2026-05-07 21:39 | 24.93905 | 128.48423 | 21007 ft | 358 kts | 47° |
| 2026-05-07 21:39 | 24.95514 | 128.50513 | 21006 ft | 358 kts | 47° |
| 2026-05-07 21:39 | 24.97124 | 128.52603 | 21005 ft | 358 kts | 47° |
| 2026-05-07 21:39 | 24.98737 | 128.54700 | 21005 ft | 357 kts | 47° |
| 2026-05-07 21:40 | 25.00340 | 128.56784 | 21004 ft | 358 kts | 47° |
| 2026-05-07 21:40 | 25.01949 | 128.58878 | 21007 ft | 358 kts | 47° |
| 2026-05-07 21:40 | 25.03661 | 128.60840 | 21002 ft | 354 kts | 34° |
| 2026-05-07 21:40 | 25.05802 | 128.62087 | 21011 ft | 346 kts | 13° |
| 2026-05-07 21:41 | 25.08151 | 128.62374 | 21010 ft | 337 kts | 350° |
| 2026-05-07 21:41 | 25.10362 | 128.61667 | 21006 ft | 328 kts | 329° |
| 2026-05-07 21:41 | 25.12342 | 128.60435 | 21016 ft | 326 kts | 325° |
| 2026-05-07 21:41 | 25.14237 | 128.59122 | 21012 ft | 325 kts | 323° |
| 2026-05-07 21:42 | 25.16147 | 128.57729 | 21004 ft | 324 kts | 322° |
| 2026-05-07 21:42 | 25.17988 | 128.56350 | 21005 ft | 323 kts | 322° |
| 2026-05-07 21:42 | 25.19836 | 128.54946 | 21005 ft | 324 kts | 321° |
| 2026-05-07 21:42 | 25.21689 | 128.53529 | 21006 ft | 324 kts | 321° |
| 2026-05-07 21:43 | 25.23534 | 128.52112 | 21006 ft | 324 kts | 321° |
| 2026-05-07 21:43 | 25.25387 | 128.50686 | 21006 ft | 324 kts | 321° |
| 2026-05-07 21:43 | 25.27236 | 128.49261 | 21005 ft | 324 kts | 321° |
| 2026-05-07 21:43 | 25.29080 | 128.47837 | 21006 ft | 324 kts | 321° |
| 2026-05-07 21:44 | 25.30934 | 128.46407 | 21009 ft | 324 kts | 321° |
| 2026-05-07 21:44 | 25.32749 | 128.45007 | 21000 ft | 315 kts | 321° |
| 2026-05-07 21:44 | 25.34508 | 128.43651 | 21001 ft | 302 kts | 321° |
| 2026-05-07 21:44 | 25.36213 | 128.42332 | 21007 ft | 298 kts | 321° |
| 2026-05-07 21:45 | 25.37908 | 128.41020 | 21006 ft | 297 kts | 321° |
| 2026-05-07 21:45 | 25.39580 | 128.39728 | 21003 ft | 290 kts | 321° |
| 2026-05-07 21:45 | 25.41247 | 128.38437 | 20618 ft | 293 kts | 321° |
| 2026-05-07 21:45 | 25.42892 | 128.37164 | 20219 ft | 287 kts | 320° |
| 2026-05-07 21:46 | 25.44503 | 128.35920 | 19816 ft | 277 kts | 320° |
| 2026-05-07 21:46 | 25.46062 | 128.34714 | 19400 ft | 272 kts | 320° |
| 2026-05-07 21:46 | 25.47609 | 128.33514 | 19024 ft | 271 kts | 320° |
| 2026-05-07 21:46 | 25.49155 | 128.32315 | 18649 ft | 271 kts | 320° |
| 2026-05-07 21:47 | 25.50691 | 128.31124 | 18272 ft | 269 kts | 320° |
| 2026-05-07 21:47 | 25.52224 | 128.29935 | 17837 ft | 268 kts | 320° |
| 2026-05-07 21:47 | 25.53742 | 128.28758 | 17410 ft | 266 kts | 320° |
| 2026-05-07 21:47 | 25.55252 | 128.27587 | 17003 ft | 264 kts | 320° |
| 2026-05-07 21:48 | 25.56245 | 128.26816 | 16734 ft | 263 kts | 320° |
| 2026-05-07 21:48 | 25.57733 | 128.25662 | 16337 ft | 261 kts | 321° |
| 2026-05-07 21:48 | 25.59221 | 128.24507 | 15944 ft | 259 kts | 321° |
| 2026-05-07 21:48 | 25.60695 | 128.23362 | 15571 ft | 258 kts | 321° |
| 2026-05-07 21:49 | 25.62159 | 128.22225 | 15190 ft | 256 kts | 321° |
| 2026-05-07 21:49 | 25.63611 | 128.21097 | 14818 ft | 255 kts | 321° |
| 2026-05-07 21:49 | 25.65061 | 128.19970 | 14454 ft | 254 kts | 321° |
| 2026-05-07 21:49 | 25.66502 | 128.18850 | 14092 ft | 252 kts | 321° |
| 2026-05-07 21:50 | 25.67933 | 128.17737 | 13741 ft | 251 kts | 321° |
| 2026-05-07 21:50 | 25.69358 | 128.16629 | 13352 ft | 250 kts | 321° |
| 2026-05-07 21:50 | 25.70777 | 128.15525 | 12959 ft | 249 kts | 321° |
| 2026-05-07 21:50 | 25.72193 | 128.14423 | 12579 ft | 247 kts | 321° |
| 2026-05-07 21:51 | 25.73592 | 128.13335 | 12202 ft | 242 kts | 321° |
| 2026-05-07 21:51 | 25.74958 | 128.12273 | 11831 ft | 238 kts | 321° |
| 2026-05-07 21:51 | 25.76308 | 128.11221 | 11462 ft | 237 kts | 321° |
| 2026-05-07 21:51 | 25.77650 | 128.10175 | 11102 ft | 236 kts | 321° |
| 2026-05-07 21:52 | 25.78992 | 128.09130 | 10745 ft | 233 kts | 321° |
| 2026-05-07 21:52 | 25.80286 | 128.08122 | 10371 ft | 229 kts | 321° |
| 2026-05-07 21:52 | 25.81586 | 128.07109 | 10026 ft | 228 kts | 321° |
| 2026-05-07 21:52 | 25.82898 | 128.06085 | 9658 ft | 227 kts | 321° |
| 2026-05-07 21:53 | 25.84182 | 128.05083 | 9282 ft | 226 kts | 321° |
| 2026-05-07 21:53 | 25.85419 | 128.04118 | 8914 ft | 225 kts | 321° |
| 2026-05-07 21:53 | 25.86737 | 128.03090 | 8523 ft | 220 kts | 321° |
| 2026-05-07 21:53 | 25.87961 | 128.02136 | 8153 ft | 217 kts | 321° |
| 2026-05-07 21:54 | 25.89195 | 128.01172 | 7785 ft | 216 kts | 321° |
| 2026-05-07 21:54 | 25.90439 | 128.00198 | 7423 ft | 216 kts | 322° |
| 2026-05-07 21:54 | 25.91646 | 127.99256 | 7093 ft | 214 kts | 322° |
| 2026-05-07 21:54 | 25.92885 | 127.98288 | 6784 ft | 215 kts | 322° |
| 2026-05-07 21:55 | 25.94086 | 127.97348 | 6495 ft | 214 kts | 322° |
| 2026-05-07 21:55 | 25.95316 | 127.96386 | 6171 ft | 211 kts | 322° |
| 2026-05-07 21:55 | 25.96466 | 127.95489 | 5944 ft | 202 kts | 322° |
| 2026-05-07 21:55 | 25.97624 | 127.94584 | 5752 ft | 201 kts | 322° |
| 2026-05-07 21:56 | 25.98765 | 127.93690 | 5535 ft | 200 kts | 322° |
| 2026-05-07 21:56 | 25.99894 | 127.92806 | 5351 ft | 200 kts | 322° |
| 2026-05-07 21:56 | 26.01032 | 127.91913 | 5154 ft | 200 kts | 322° |
| 2026-05-07 21:56 | 26.02165 | 127.91018 | 4938 ft | 199 kts | 318° |
| 2026-05-07 21:57 | 26.02861 | 127.89751 | 4757 ft | 194 kts | 283° |
| 2026-05-07 21:57 | 26.03091 | 127.88314 | 4555 ft | 184 kts | 275° |
| 2026-05-07 21:57 | 26.03236 | 127.86916 | 4362 ft | 179 kts | 274° |
| 2026-05-07 21:57 | 26.03369 | 127.85575 | 4144 ft | 171 kts | 274° |
| 2026-05-07 21:58 | 26.03493 | 127.84269 | 3953 ft | 169 kts | 274° |
| 2026-05-07 21:58 | 26.03619 | 127.82971 | 3746 ft | 168 kts | 274° |
| 2026-05-07 21:58 | 26.03748 | 127.81681 | 3562 ft | 169 kts | 274° |
| 2026-05-07 21:58 | 26.03880 | 127.80389 | 3369 ft | 169 kts | 274° |
| 2026-05-07 21:59 | 26.04006 | 127.79092 | 3169 ft | 169 kts | 274° |
| 2026-05-07 21:59 | 26.04062 | 127.77792 | 2966 ft | 168 kts | 267° |
| 2026-05-07 21:59 | 26.04009 | 127.76494 | 2764 ft | 167 kts | 264° |
| 2026-05-07 21:59 | 26.03941 | 127.75203 | 2569 ft | 167 kts | 264° |
| 2026-05-07 22:00 | 26.03869 | 127.73925 | 2360 ft | 162 kts | 264° |
| 2026-05-07 22:00 | 26.03797 | 127.72702 | 2161 ft | 157 kts | 264° |
| 2026-05-07 22:00 | 26.03734 | 127.71500 | 2048 ft | 155 kts | 264° |
| 2026-05-07 22:00 | 26.03677 | 127.70306 | 2006 ft | 154 kts | 264° |
| 2026-05-07 22:01 | 26.03622 | 127.69116 | 2010 ft | 155 kts | 264° |
| 2026-05-07 22:01 | 26.03568 | 127.67911 | 1999 ft | 156 kts | 264° |
| 2026-05-07 22:01 | 26.03517 | 127.66702 | 2000 ft | 156 kts | 264° |
| 2026-05-07 22:01 | 26.03467 | 127.65489 | 2002 ft | 158 kts | 264° |
| 2026-05-07 22:02 | 26.03417 | 127.64279 | 2000 ft | 156 kts | 265° |
| 2026-05-07 22:02 | 26.03357 | 127.63064 | 1998 ft | 158 kts | 264° |
| 2026-05-07 22:02 | 26.03296 | 127.61849 | 1999 ft | 156 kts | 264° |
| 2026-05-07 22:02 | 26.03237 | 127.60678 | 2001 ft | 148 kts | 264° |
| 2026-05-07 22:03 | 26.03181 | 127.59541 | 2006 ft | 146 kts | 264° |
| 2026-05-07 22:03 | 26.03132 | 127.58411 | 1996 ft | 147 kts | 265° |
| 2026-05-07 22:03 | 26.03085 | 127.57283 | 2004 ft | 145 kts | 264° |
| 2026-05-07 22:03 | 26.03039 | 127.56154 | 1999 ft | 148 kts | 264° |
| 2026-05-07 22:04 | 26.02992 | 127.55019 | 1999 ft | 146 kts | 265° |
| 2026-05-07 22:04 | 26.02935 | 127.53886 | 1996 ft | 147 kts | 264° |
| 2026-05-07 22:04 | 26.02875 | 127.52756 | 2007 ft | 146 kts | 264° |
| 2026-05-07 22:04 | 26.02820 | 127.51632 | 1994 ft | 145 kts | 264° |
| 2026-05-07 22:05 | 26.02768 | 127.50510 | 2005 ft | 146 kts | 264° |
| 2026-05-07 22:05 | 26.02718 | 127.49387 | 1999 ft | 145 kts | 264° |
| 2026-05-07 22:05 | 26.02665 | 127.48277 | 2004 ft | 146 kts | 264° |
| 2026-05-07 22:05 | 26.02614 | 127.47153 | 2009 ft | 146 kts | 264° |
| 2026-05-07 22:06 | 26.02557 | 127.46032 | 2001 ft | 144 kts | 264° |
| 2026-05-07 22:06 | 26.02504 | 127.44914 | 2009 ft | 146 kts | 264° |
| 2026-05-07 22:06 | 26.02449 | 127.43786 | 2002 ft | 146 kts | 264° |
| 2026-05-07 22:06 | 26.02396 | 127.42667 | 2001 ft | 144 kts | 266° |
| 2026-05-07 22:07 | 26.02760 | 127.41634 | 2004 ft | 152 kts | 313° |
| 2026-05-07 22:07 | 26.03713 | 127.41241 | 2000 ft | 149 kts | 5° |
| 2026-05-07 22:07 | 26.04585 | 127.41785 | 2005 ft | 146 kts | 54° |
| 2026-05-07 22:07 | 26.05061 | 127.42777 | 2013 ft | 145 kts | 72° |
| 2026-05-07 22:08 | 26.05350 | 127.43844 | 2026 ft | 142 kts | 79° |
| 2026-05-07 22:08 | 26.05577 | 127.44895 | 2005 ft | 138 kts | 80° |
| 2026-05-07 22:08 | 26.05828 | 127.45939 | 2000 ft | 141 kts | 77° |
| 2026-05-07 22:08 | 26.06120 | 127.46976 | 1993 ft | 139 kts | 71° |
| 2026-05-07 22:09 | 26.06710 | 127.47810 | 2007 ft | 143 kts | 32° |
| 2026-05-07 22:09 | 26.07678 | 127.48109 | 2011 ft | 146 kts | 4° |
| 2026-05-07 22:09 | 26.08682 | 127.48070 | 2006 ft | 145 kts | 353° |
| 2026-05-07 22:09 | 26.09682 | 127.47904 | 2008 ft | 146 kts | 348° |
| 2026-05-07 22:10 | 26.10677 | 127.47700 | 2004 ft | 145 kts | 347° |
| 2026-05-07 22:10 | 26.11660 | 127.47492 | 2006 ft | 143 kts | 348° |
| 2026-05-07 22:10 | 26.12649 | 127.47419 | 1997 ft | 143 kts | 10° |
| 2026-05-07 22:10 | 26.13528 | 127.47896 | 2006 ft | 142 kts | 38° |
| 2026-05-07 22:11 | 26.14262 | 127.48658 | 2003 ft | 144 kts | 49° |
| 2026-05-07 22:11 | 26.14904 | 127.49491 | 1996 ft | 141 kts | 53° |
| 2026-05-07 22:11 | 26.15508 | 127.50340 | 2002 ft | 141 kts | 54° |
| 2026-05-07 22:11 | 26.16100 | 127.51189 | 2005 ft | 140 kts | 55° |
| 2026-05-07 22:12 | 26.16699 | 127.52041 | 1992 ft | 140 kts | 54° |
| 2026-05-07 22:12 | 26.17300 | 127.52882 | 2000 ft | 139 kts | 53° |
| 2026-05-07 22:12 | 26.17917 | 127.53732 | 1999 ft | 139 kts | 53° |
| 2026-05-07 22:12 | 26.18525 | 127.54548 | 1997 ft | 138 kts | 51° |
| 2026-05-07 22:13 | 26.19147 | 127.55365 | 1993 ft | 138 kts | 51° |
| 2026-05-07 22:13 | 26.19778 | 127.56182 | 1997 ft | 139 kts | 50° |
| 2026-05-07 22:13 | 26.20408 | 127.56993 | 1998 ft | 138 kts | 50° |
| 2026-05-07 22:13 | 26.21132 | 127.57683 | 1996 ft | 139 kts | 21° |
| 2026-05-07 22:14 | 26.22086 | 127.57876 | 2003 ft | 140 kts | 9° |
| 2026-05-07 22:14 | 26.22832 | 127.58485 | 1995 ft | 137 kts | 67° |
| 2026-05-07 22:14 | 26.23070 | 127.59507 | 2004 ft | 137 kts | 72° |
| 2026-05-07 22:14 | 26.23671 | 127.60310 | 1994 ft | 138 kts | 35° |
| 2026-05-07 22:15 | 26.24438 | 127.60949 | 1996 ft | 138 kts | 48° |
| 2026-05-07 22:15 | 26.24929 | 127.61850 | 2003 ft | 137 kts | 65° |
| 2026-05-07 22:15 | 26.25469 | 127.62727 | 2000 ft | 138 kts | 47° |
| 2026-05-07 22:15 | 26.26122 | 127.63499 | 1993 ft | 136 kts | 51° |
| 2026-05-07 22:16 | 26.26734 | 127.64302 | 2001 ft | 136 kts | 52° |
| 2026-05-07 22:16 | 26.27336 | 127.65109 | 2001 ft | 135 kts | 52° |
| 2026-05-07 22:16 | 26.27914 | 127.65902 | 2012 ft | 134 kts | 53° |
| 2026-05-07 22:16 | 26.28504 | 127.66723 | 1969 ft | 136 kts | 53° |
| 2026-05-07 22:17 | 26.29089 | 127.67542 | 1809 ft | 134 kts | 53° |
| 2026-05-07 22:17 | 26.29665 | 127.68345 | 1613 ft | 131 kts | 53° |
| 2026-05-07 22:17 | 26.30232 | 127.69130 | 1433 ft | 130 kts | 53° |
| 2026-05-07 22:17 | 26.30800 | 127.69912 | 1271 ft | 130 kts | 52° |
| 2026-05-07 22:18 | 26.31369 | 127.70691 | 1101 ft | 129 kts | 52° |
| 2026-05-07 22:18 | 26.32489 | 127.72221 | 766 ft | 125 kts | 52° |
| 2026-05-07 22:18 | 26.33033 | 127.72973 | 540 ft | 122 kts | 51° |
| 2026-05-07 22:19 | 26.33550 | 127.73693 | 416 ft | 120 kts | 51° |
| 2026-05-07 22:19 | 26.34083 | 127.74407 | 286 ft | 119 kts | 50° |
| 2026-05-07 22:19 | 26.34573 | 127.75093 | 180 ft | 111 kts | 49° |
| 2026-05-07 22:19 | 26.35059 | 127.75768 | 155 ft | 109 kts | 52° |
| 2026-05-07 22:20 | 26.35533 | 127.76404 | 143 ft | 101 kts | 51° |
| 2026-05-07 22:20 | 26.35786 | 127.76768 | 120 ft | 0 kts | 49° |